createdAt,value
2023-02-07T05:28:12.348Z,102484.78
2023-02-07T05:32:34.530Z,102484.78
2023-02-07T05:36:37.260Z,102497.22
2023-02-07T05:40:41.392Z,102505.69
2023-02-07T05:44:44.497Z,102501.53
2023-02-07T05:48:48.209Z,102499.00
2023-02-07T05:52:51.561Z,102501.47
2023-02-07T05:56:54.542Z,102498.09
2023-02-07T06:00:57.560Z,102498.03
2023-02-07T06:05:00.610Z,102490.31
2023-02-07T06:09:03.648Z,102495.47
2023-02-07T06:13:07.297Z,102488.66
2023-02-07T06:17:10.109Z,102496.41
2023-02-07T06:21:13.120Z,102499.88
2023-02-07T06:25:16.782Z,102510.97
2023-02-07T06:29:20.318Z,102512.69
2023-02-07T06:33:24.106Z,102518.59
2023-02-07T06:37:28.100Z,102511.03
2023-02-07T06:41:30.878Z,102512.69
2023-02-07T06:45:33.878Z,102508.44
2023-02-07T06:49:36.695Z,102502.31
2023-02-07T06:53:40.063Z,102491.19
2023-02-07T06:57:42.837Z,102485.13
2023-02-07T07:01:47.746Z,102490.97
2023-02-07T07:05:52.051Z,102486.75
2023-02-07T07:09:54.997Z,102494.66
2023-02-07T07:13:57.906Z,102496.53
2023-02-07T07:18:00.938Z,102492.38
2023-02-07T07:22:03.705Z,102489.03
2023-02-07T07:26:06.883Z,102490.84
2023-02-07T07:30:10.950Z,102496.09
2023-02-07T07:34:14.545Z,102496.16
2023-02-07T07:38:17.231Z,102497.06
2023-02-07T07:42:20.379Z,102487.59
2023-02-07T07:46:24.925Z,102499.62
2023-02-07T07:50:28.127Z,102495.25
2023-02-07T07:54:30.935Z,102486.59
2023-02-07T07:58:34.107Z,102493.28
2023-02-07T08:02:36.778Z,102488.72
2023-02-07T08:06:39.820Z,102495.38
2023-02-07T08:10:43.667Z,102478.66
2023-02-07T08:14:46.810Z,102482.97
2023-02-07T08:18:50.522Z,102488.50
2023-02-07T08:22:53.558Z,102480.66
2023-02-07T08:31:30.320Z,102488.06
2023-02-07T08:35:33.333Z,102483.47
2023-02-07T08:39:36.688Z,102489.38
2023-02-07T08:43:39.512Z,102498.75
2023-02-07T08:48:02.160Z,102500.13
2023-02-07T08:56:26.699Z,102507.91
2023-02-07T09:00:54.251Z,102515.00
2023-02-07T09:05:13.232Z,102509.88
2023-02-07T09:09:16.371Z,102507.19
2023-02-07T09:13:21.260Z,102512.69
2023-02-07T09:17:33.733Z,102506.91
2023-02-07T09:21:42.890Z,102502.59
2023-02-07T09:25:55.316Z,102502.94
2023-02-07T09:30:09.300Z,102503.25
2023-02-07T09:34:28.925Z,102507.25
2023-02-07T09:43:28.432Z,102507.03
2023-02-07T09:47:47.894Z,102499.09
2023-02-07T09:52:10.333Z,102501.78
2023-02-07T09:56:24.855Z,102497.97
2023-02-07T10:00:38.667Z,102493.63
2023-02-07T10:05:23.267Z,102500.16
2023-02-07T10:10:35.884Z,102490.31
2023-02-07T10:15:45.929Z,102493.28
2023-02-07T10:20:48.400Z,102487.84
2023-02-07T10:25:16.010Z,102477.66
2023-02-07T10:29:55.332Z,102468.09
2023-02-07T10:34:18.275Z,102470.00
2023-02-07T10:39:38.180Z,102464.47
2023-02-07T10:44:17.028Z,102462.59
2023-02-07T10:48:23.013Z,102457.91
2023-02-07T10:52:57.993Z,102461.78
2023-02-07T10:57:42.100Z,102460.22
2023-02-07T11:01:57.691Z,102458.44
2023-02-07T11:06:10.676Z,102445.25
2023-02-07T11:10:35.152Z,102444.06
2023-02-07T11:14:53.304Z,102442.16
2023-02-07T11:19:46.675Z,102435.69
2023-02-07T11:23:51.730Z,102431.25
2023-02-07T11:28:02.778Z,102435.56
2023-02-07T11:32:46.838Z,102420.09
2023-02-07T11:36:59.884Z,102420.53
2023-02-07T11:42:03.929Z,102423.13
2023-02-07T11:46:39.661Z,102420.91
2023-02-07T11:51:07.377Z,102411.34
2023-02-07T11:55:19.522Z,102401.69
2023-02-07T11:59:29.223Z,102405.16
2023-02-07T12:04:10.626Z,102394.97
2023-02-07T12:08:35.115Z,102393.69
2023-02-07T12:12:52.908Z,102380.53
2023-02-07T12:17:21.107Z,102380.75
2023-02-07T12:21:50.183Z,102374.31
2023-02-07T12:26:03.676Z,102374.81
2023-02-07T12:30:25.505Z,102381.12
2023-02-07T12:34:47.817Z,102389.94
2023-02-07T12:39:20.275Z,102378.31
2023-02-07T12:43:38.857Z,102386.47
2023-02-07T12:48:21.224Z,102381.66
2023-02-07T12:52:44.747Z,102372.22
2023-02-07T12:57:01.597Z,102361.78
2023-02-07T13:01:54.436Z,102369.63
2023-02-07T13:06:29.928Z,102356.88
2023-02-07T13:11:17.106Z,102366.75
2023-02-07T13:15:43.069Z,102355.84
2023-02-07T13:20:20.214Z,102358.50
2023-02-07T13:24:24.842Z,102368.09
2023-02-07T13:28:45.744Z,102365.06
2023-02-07T13:32:50.273Z,102366.72
2023-02-07T13:36:58.790Z,102368.09
2023-02-07T13:41:18.017Z,102361.00
2023-02-07T13:45:34.832Z,102367.81
2023-02-07T13:50:16.650Z,102357.75
2023-02-07T13:54:46.984Z,102354.19
2023-02-07T13:59:11.360Z,102340.97
2023-02-07T14:03:35.492Z,102339.44
2023-02-07T14:07:39.790Z,102351.09
2023-02-07T14:12:01.500Z,102346.25
2023-02-07T14:16:13.505Z,102358.84
2023-02-07T14:20:34.881Z,102358.69
2023-02-07T14:24:37.940Z,102363.50
2023-02-07T14:28:46.310Z,102366.00
2023-02-07T14:33:15.269Z,102356.66
2023-02-07T14:37:36.509Z,102362.88
2023-02-07T14:41:42.817Z,102367.44
2023-02-07T14:45:51.634Z,102363.00
2023-02-07T14:49:59.343Z,102376.59
2023-02-07T14:54:06.831Z,102375.53
2023-02-07T14:58:43.176Z,102378.47
2023-02-07T15:02:58.707Z,102376.34
2023-02-07T15:07:02.305Z,102377.75
2023-02-07T15:11:07.491Z,102374.88
2023-02-07T15:15:18.881Z,102368.75
2023-02-07T15:19:42.271Z,102368.00
2023-02-07T15:23:49.685Z,102372.19
2023-02-07T15:28:09.236Z,102383.34
2023-02-07T15:32:22.074Z,102391.28
2023-02-07T15:36:40.738Z,102392.69
2023-02-07T15:40:44.108Z,102399.37
2023-02-07T15:44:52.016Z,102393.59
2023-02-07T15:48:58.231Z,102390.94
2023-02-07T15:53:04.164Z,102382.19
2023-02-07T15:57:12.650Z,102392.34
